Terminal Aerodrome Forecast
Issued by NWS Wilmington, OH

Current Version | Previous Version | Graphics & Text | Print | Product List | Glossary On
Versions: 1 2 3 4 5 6 7 8 9 10 11 12 13 14 15 16 17
000
FTUS41 KILN 281700 AAC
TAFDAY
TAF AMD
KDAY 281705Z 2817/2912 23014KT 5SM -SHRA BR SCT025 OVC070
      TEMPO 2817/2818 2SM -SHRA BR BKN025
     FM281830 24014KT P6SM BKN022 OVC050
     FM281930 25012KT P6SM BKN050 OVC100
     FM282100 26012KT P6SM BKN100 OVC200
     FM282300 26007KT P6SM SCT100=

USA.gov is the U.S. government's official web portal to all federal, state and local government web resources and services.